sensor_id;sensor_type;location;lat;lon;timestamp;pressure;altitude;pressure_sealevel;temperature;humidity
67015;BME280;1033;52.560;13.374;2023-08-30T00:01:43;100198.63;;;14.26;100.00
67015;BME280;1033;52.560;13.374;2023-08-30T00:04:12;100202.06;;;14.22;100.00
67015;BME280;1033;52.560;13.374;2023-08-30T00:06:41;100202.06;;;14.22;100.00
67015;BME280;1033;52.560;13.374;2023-08-30T00:09:10;100201.47;;;14.20;100.00
67015;BME280;1033;52.560;13.374;2023-08-30T00:11:40;100200.66;;;14.19;100.00
67015;BME280;1033;52.560;13.374;2023-08-30T00:14:10;100203.63;;;14.18;100.00
67015;BME280;1033;52.560;13.374;2023-08-30T00:16:39;100202.22;;;14.15;100.00
67015;BME280;1033;52.560;13.374;2023-08-30T00:19:10;100202.22;;;14.15;100.00
67015;BME280;1033;52.560;13.374;2023-08-30T00:21:39;100201.38;;;14.15;100.00
67015;BME280;1033;52.560;13.374;2023-08-30T00:24:08;100197.56;;;14.27;100.00
67015;BME280;1033;52.560;13.374;2023-08-30T00:26:37;100198.22;;;14.34;100.00
67015;BME280;1033;52.560;13.374;2023-08-30T00:29:06;100195.31;;;14.36;100.00
67015;BME280;1033;52.560;13.374;2023-08-30T00:31:37;100196.56;;;14.33;100.00
67015;BME280;1033;52.560;13.374;2023-08-30T00:34:06;100194.44;;;14.35;100.00
67015;BME280;1033;52.560;13.374;2023-08-30T00:36:36;100196.13;;;14.37;100.00
67015;BME280;1033;52.560;13.374;2023-08-30T00:39:06;100196.97;;;14.37;100.00
67015;BME280;1033;52.560;13.374;2023-08-30T00:41:36;100196.47;;;14.40;100.00
67015;BME280;1033;52.560;13.374;2023-08-30T00:44:06;100196.31;;;14.47;100.00
67015;BME280;1033;52.560;13.374;2023-08-30T00:46:40;100191.94;;;14.46;100.00
67015;BME280;1033;52.560;13.374;2023-08-30T00:49:10;100182.81;;;14.52;100.00
67015;BME280;1033;52.560;13.374;2023-08-30T00:51:40;100188.72;;;14.49;100.00
67015;BME280;1033;52.560;13.374;2023-08-30T00:54:10;100183.78;;;14.46;100.00
67015;BME280;1033;52.560;13.374;2023-08-30T00:56:39;100187.56;;;14.45;100.00
67015;BME280;1033;52.560;13.374;2023-08-30T00:59:08;100189.22;;;14.46;100.00
67015;BME280;1033;52.560;13.374;2023-08-30T01:01:38;100187.22;;;14.41;100.00
67015;BME280;1033;52.560;13.374;2023-08-30T01:04:09;100184.41;;;14.36;100.00
67015;BME280;1033;52.560;13.374;2023-08-30T01:06:40;100189.97;;;14.29;100.00
67015;BME280;1033;52.560;13.374;2023-08-30T01:09:09;100189.88;;;14.24;100.00
67015;BME280;1033;52.560;13.374;2023-08-30T01:11:46;100183.84;;;14.22;100.00
67015;BME280;1033;52.560;13.374;2023-08-30T01:14:21;100193.63;;;14.35;100.00
67015;BME280;1033;52.560;13.374;2023-08-30T01:16:52;100196.56;;;14.33;100.00
67015;BME280;1033;52.560;13.374;2023-08-30T01:19:36;100202.72;;;14.41;100.00
67015;BME280;1033;52.560;13.374;2023-08-30T01:22:16;100209.13;;;14.34;100.00
67015;BME280;1033;52.560;13.374;2023-08-30T01:24:56;100207.22;;;14.35;100.00
67015;BME280;1033;52.560;13.374;2023-08-30T01:27:29;100210.16;;;14.33;100.00
67015;BME280;1033;52.560;13.374;2023-08-30T01:30:00;100208.19;;;14.41;100.00
67015;BME280;1033;52.560;13.374;2023-08-30T01:32:32;100213.72;;;14.34;100.00
67015;BME280;1033;52.560;13.374;2023-08-30T01:35:03;100216.72;;;14.32;100.00
67015;BME280;1033;52.560;13.374;2023-08-30T01:37:33;100218.84;;;14.30;100.00
67015;BME280;1033;52.560;13.374;2023-08-30T01:40:04;100220.81;;;14.35;100.00
67015;BME280;1033;52.560;13.374;2023-08-30T01:42:37;100219.91;;;14.29;100.00
67015;BME280;1033;52.560;13.374;2023-08-30T01:45:08;100219.56;;;14.26;100.00
67015;BME280;1033;52.560;13.374;2023-08-30T01:47:39;100220.69;;;14.13;100.00
67015;BME280;1033;52.560;13.374;2023-08-30T01:50:09;100218.53;;;14.15;100.00
67015;BME280;1033;52.560;13.374;2023-08-30T01:52:39;100216.03;;;14.14;100.00
67015;BME280;1033;52.560;13.374;2023-08-30T01:55:09;100225.53;;;14.11;100.00
67015;BME280;1033;52.560;13.374;2023-08-30T01:57:41;100221.16;;;14.10;100.00
67015;BME280;1033;52.560;13.374;2023-08-30T02:00:12;100226.50;;;14.05;100.00
67015;BME280;1033;52.560;13.374;2023-08-30T02:02:44;100228.03;;;14.01;100.00
67015;BME280;1033;52.560;13.374;2023-08-30T02:05:13;100226.50;;;14.05;100.00
67015;BME280;1033;52.560;13.374;2023-08-30T02:07:51;100227.59;;;13.92;100.00
67015;BME280;1033;52.560;13.374;2023-08-30T02:10:25;100209.38;;;13.93;100.00
67015;BME280;1033;52.560;13.374;2023-08-30T02:13:00;100202.56;;;13.79;100.00
67015;BME280;1033;52.560;13.374;2023-08-30T02:15:33;100201.69;;;13.90;100.00
67015;BME280;1033;52.560;13.374;2023-08-30T02:18:05;100200.31;;;13.76;100.00
67015;BME280;1033;52.560;13.374;2023-08-30T02:20:35;100198.91;;;13.62;100.00
67015;BME280;1033;52.560;13.374;2023-08-30T02:23:04;100214.06;;;13.58;100.00
67015;BME280;1033;52.560;13.374;2023-08-30T02:25:41;100218.31;;;13.54;100.00
67015;BME280;1033;52.560;13.374;2023-08-30T02:28:12;100210.72;;;13.56;100.00
67015;BME280;1033;52.560;13.374;2023-08-30T02:30:41;100217.38;;;13.60;100.00
67015;BME280;1033;52.560;13.374;2023-08-30T02:33:11;100206.13;;;13.56;100.00
67015;BME280;1033;52.560;13.374;2023-08-30T02:35:40;100209.09;;;13.55;100.00
67015;BME280;1033;52.560;13.374;2023-08-30T02:38:09;100217.03;;;13.44;100.00
67015;BME280;1033;52.560;13.374;2023-08-30T02:40:38;100217.47;;;13.41;100.00
67015;BME280;1033;52.560;13.374;2023-08-30T02:43:08;100214.41;;;13.38;100.00
67015;BME280;1033;52.560;13.374;2023-08-30T02:45:39;100205.56;;;13.42;100.00
67015;BME280;1033;52.560;13.374;2023-08-30T02:48:08;100209.34;;;13.41;100.00
67015;BME280;1033;52.560;13.374;2023-08-30T02:50:38;100206.88;;;13.40;100.00
67015;BME280;1033;52.560;13.374;2023-08-30T02:53:07;100210.88;;;13.37;100.00
67015;BME280;1033;52.560;13.374;2023-08-30T02:55:37;100213.25;;;13.45;100.00
67015;BME280;1033;52.560;13.374;2023-08-30T02:58:06;100211.22;;;13.53;100.00
67015;BME280;1033;52.560;13.374;2023-08-30T03:00:36;100195.63;;;13.60;100.00
67015;BME280;1033;52.560;13.374;2023-08-30T03:03:08;100183.78;;;13.66;100.00
67015;BME280;1033;52.560;13.374;2023-08-30T03:05:39;100179.78;;;13.57;100.00
67015;BME280;1033;52.560;13.374;2023-08-30T03:08:08;100179.56;;;13.46;100.00
67015;BME280;1033;52.560;13.374;2023-08-30T03:10:38;100176.84;;;13.46;100.00
67015;BME280;1033;52.560;13.374;2023-08-30T03:13:08;100171.28;;;13.41;100.00
67015;BME280;1033;52.560;13.374;2023-08-30T03:15:37;100155.84;;;13.30;100.00
67015;BME280;1033;52.560;13.374;2023-08-30T03:18:09;100162.19;;;13.13;100.00
67015;BME280;1033;52.560;13.374;2023-08-30T03:20:39;100175.28;;;13.04;100.00
67015;BME280;1033;52.560;13.374;2023-08-30T03:23:08;100170.78;;;12.98;100.00
67015;BME280;1033;52.560;13.374;2023-08-30T03:25:38;100168.56;;;12.95;100.00
67015;BME280;1033;52.560;13.374;2023-08-30T03:28:07;100170.47;;;13.06;100.00
67015;BME280;1033;52.560;13.374;2023-08-30T03:30:36;100164.44;;;12.92;100.00
67015;BME280;1033;52.560;13.374;2023-08-30T03:33:05;100168.56;;;12.95;100.00
67015;BME280;1033;52.560;13.374;2023-08-30T03:35:36;100179.28;;;12.90;100.00
67015;BME280;1033;52.560;13.374;2023-08-30T03:38:05;100181.31;;;12.94;100.00
67015;BME280;1033;52.560;13.374;2023-08-30T03:40:35;100185.78;;;12.89;100.00
67015;BME280;1033;52.560;13.374;2023-08-30T03:43:07;100189.66;;;12.93;100.00
67015;BME280;1033;52.560;13.374;2023-08-30T03:45:38;100187.56;;;12.95;100.00
67015;BME280;1033;52.560;13.374;2023-08-30T03:48:07;100189.53;;;12.88;100.00
67015;BME280;1033;52.560;13.374;2023-08-30T03:50:38;100193.56;;;12.85;100.00
67015;BME280;1033;52.560;13.374;2023-08-30T03:53:07;100195.34;;;13.03;100.00
67015;BME280;1033;52.560;13.374;2023-08-30T03:55:36;100198.91;;;12.92;100.00
67015;BME280;1033;52.560;13.374;2023-08-30T03:58:05;100197.00;;;13.04;100.00
67015;BME280;1033;52.560;13.374;2023-08-30T04:00:36;100192.06;;;13.01;100.00
67015;BME280;1033;52.560;13.374;2023-08-30T04:03:09;100195.88;;;13.12;100.00
67015;BME280;1033;52.560;13.374;2023-08-30T04:05:41;100193.25;;;13.05;100.00
67015;BME280;1033;52.560;13.374;2023-08-30T04:08:10;100184.75;;;13.13;100.00
67015;BME280;1033;52.560;13.374;2023-08-30T04:10:40;100186.91;;;13.11;100.00
67015;BME280;1033;52.560;13.374;2023-08-30T04:13:11;100183.72;;;13.14;100.00
67015;BME280;1033;52.560;13.374;2023-08-30T04:15:40;100177.91;;;13.11;100.00
67015;BME280;1033;52.560;13.374;2023-08-30T04:18:10;100191.03;;;13.25;100.00
67015;BME280;1033;52.560;13.374;2023-08-30T04:20:45;100194.09;;;13.29;100.00
67015;BME280;1033;52.560;13.374;2023-08-30T04:23:14;100191.97;;;13.19;100.00
67015;BME280;1033;52.560;13.374;2023-08-30T04:25:45;100192.09;;;13.24;100.00
67015;BME280;1033;52.560;13.374;2023-08-30T04:28:14;100192.59;;;13.21;100.00
67015;BME280;1033;52.560;13.374;2023-08-30T04:30:44;100192.34;;;13.34;100.00
67015;BME280;1033;52.560;13.374;2023-08-30T04:33:14;100199.53;;;13.29;100.00
67015;BME280;1033;52.560;13.374;2023-08-30T04:35:49;100196.81;;;13.29;100.00
67015;BME280;1033;52.560;13.374;2023-08-30T04:38:18;100206.28;;;13.26;100.00
67015;BME280;1033;52.560;13.374;2023-08-30T04:40:48;100206.25;;;13.38;100.00
67015;BME280;1033;52.560;13.374;2023-08-30T04:43:18;100207.34;;;13.48;100.00
67015;BME280;1033;52.560;13.374;2023-08-30T04:45:48;100213.72;;;13.54;100.00
67015;BME280;1033;52.560;13.374;2023-08-30T04:48:17;100216.78;;;13.58;100.00
67015;BME280;1033;52.560;13.374;2023-08-30T04:50:49;100223.03;;;13.70;100.00
67015;BME280;1033;52.560;13.374;2023-08-30T04:53:18;100217.44;;;13.76;100.00
67015;BME280;1033;52.560;13.374;2023-08-30T04:55:47;100214.63;;;13.83;100.00
67015;BME280;1033;52.560;13.374;2023-08-30T04:58:17;100215.88;;;13.92;100.00
67015;BME280;1033;52.560;13.374;2023-08-30T05:00:46;100214.44;;;14.01;100.00
67015;BME280;1033;52.560;13.374;2023-08-30T05:03:15;100215.34;;;14.18;100.00
67015;BME280;1033;52.560;13.374;2023-08-30T05:05:49;100214.66;;;14.11;100.00
67015;BME280;1033;52.560;13.374;2023-08-30T05:08:18;100229.22;;;14.05;100.00
67015;BME280;1033;52.560;13.374;2023-08-30T05:10:48;100227.75;;;14.14;100.00
67015;BME280;1033;52.560;13.374;2023-08-30T05:13:18;100227.78;;;14.43;100.00
67015;BME280;1033;52.560;13.374;2023-08-30T05:15:47;100224.16;;;14.65;100.00
67015;BME280;1033;52.560;13.374;2023-08-30T05:18:19;100231.22;;;14.95;100.00
67015;BME280;1033;52.560;13.374;2023-08-30T05:20:49;100230.28;;;15.06;100.00
67015;BME280;1033;52.560;13.374;2023-08-30T05:23:19;100228.16;;;15.25;100.00
67015;BME280;1033;52.560;13.374;2023-08-30T05:25:48;100224.50;;;15.36;100.00
67015;BME280;1033;52.560;13.374;2023-08-30T05:28:18;100231.63;;;15.53;100.00
67015;BME280;1033;52.560;13.374;2023-08-30T05:30:47;100237.28;;;15.69;100.00
67015;BME280;1033;52.560;13.374;2023-08-30T05:33:37;100236.16;;;15.86;100.00
67015;BME280;1033;52.560;13.374;2023-08-30T05:36:26;100239.78;;;16.14;100.00
67015;BME280;1033;52.560;13.374;2023-08-30T05:39:12;100233.31;;;16.20;100.00
67015;BME280;1033;52.560;13.374;2023-08-30T05:41:46;100231.28;;;16.10;100.00
67015;BME280;1033;52.560;13.374;2023-08-30T05:44:15;100216.94;;;15.98;100.00
67015;BME280;1033;52.560;13.374;2023-08-30T05:46:44;100226.34;;;15.85;100.00
67015;BME280;1033;52.560;13.374;2023-08-30T05:49:14;100221.88;;;15.79;100.00
67015;BME280;1033;52.560;13.374;2023-08-30T05:51:46;100218.53;;;15.72;100.00
67015;BME280;1033;52.560;13.374;2023-08-30T05:54:19;100216.94;;;15.76;100.00
67015;BME280;1033;52.560;13.374;2023-08-30T05:56:48;100221.53;;;15.92;100.00
67015;BME280;1033;52.560;13.374;2023-08-30T05:59:17;100231.53;;;16.08;100.00
67015;BME280;1033;52.560;13.374;2023-08-30T06:01:47;100226.72;;;16.16;100.00
67015;BME280;1033;52.560;13.374;2023-08-30T06:04:16;100220.94;;;16.12;100.00
67015;BME280;1033;52.560;13.374;2023-08-30T06:06:46;100220.50;;;16.20;100.00
67015;BME280;1033;52.560;13.374;2023-08-30T06:09:16;100226.91;;;16.31;100.00
67015;BME280;1033;52.560;13.374;2023-08-30T06:11:46;100223.41;;;16.35;100.00
67015;BME280;1033;52.560;13.374;2023-08-30T06:14:16;100217.28;;;16.50;100.00
67015;BME280;1033;52.560;13.374;2023-08-30T06:16:45;100211.44;;;16.63;100.00
67015;BME280;1033;52.560;13.374;2023-08-30T06:19:14;100209.28;;;16.65;100.00
67015;BME280;1033;52.560;13.374;2023-08-30T06:21:46;100214.31;;;16.78;100.00
67015;BME280;1033;52.560;13.374;2023-08-30T06:24:15;100213.13;;;16.69;100.00
67015;BME280;1033;52.560;13.374;2023-08-30T06:26:44;100213.47;;;16.78;100.00
67015;BME280;1033;52.560;13.374;2023-08-30T06:29:13;100207.09;;;16.67;100.00
67015;BME280;1033;52.560;13.374;2023-08-30T06:31:43;100218.25;;;16.92;100.00
67015;BME280;1033;52.560;13.374;2023-08-30T06:34:13;100211.31;;;17.12;100.00
67015;BME280;1033;52.560;13.374;2023-08-30T06:36:48;100209.84;;;16.99;100.00
67015;BME280;1033;52.560;13.374;2023-08-30T06:39:18;100216.56;;;17.23;98.75
67015;BME280;1033;52.560;13.374;2023-08-30T06:41:47;100217.19;;;17.30;98.21
67015;BME280;1033;52.560;13.374;2023-08-30T06:44:16;100215.88;;;17.38;96.93
67015;BME280;1033;52.560;13.374;2023-08-30T06:46:46;100219.44;;;17.38;97.70
67015;BME280;1033;52.560;13.374;2023-08-30T06:49:15;100215.41;;;17.46;97.81
67015;BME280;1033;52.560;13.374;2023-08-30T06:51:44;100215.28;;;17.73;97.55
67015;BME280;1033;52.560;13.374;2023-08-30T06:54:15;100220.34;;;17.54;96.10
67015;BME280;1033;52.560;13.374;2023-08-30T06:56:56;100213.63;;;17.62;95.71
67015;BME280;1033;52.560;13.374;2023-08-30T06:59:25;100212.31;;;17.74;96.01
67015;BME280;1033;52.560;13.374;2023-08-30T07:01:55;100212.97;;;18.02;94.46
67015;BME280;1033;52.560;13.374;2023-08-30T07:04:24;100213.78;;;18.02;91.99
67015;BME280;1033;52.560;13.374;2023-08-30T07:06:53;100211.25;;;17.80;92.23
67015;BME280;1033;52.560;13.374;2023-08-30T07:09:24;100204.50;;;18.03;92.81
67015;BME280;1033;52.560;13.374;2023-08-30T07:11:56;100208.81;;;17.89;91.41
67015;BME280;1033;52.560;13.374;2023-08-30T07:14:26;100218.72;;;18.00;92.45
67015;BME280;1033;52.560;13.374;2023-08-30T07:16:55;100213.63;;;18.24;90.81
67015;BME280;1033;52.560;13.374;2023-08-30T07:19:24;100217.16;;;18.14;89.92
67015;BME280;1033;52.560;13.374;2023-08-30T07:21:53;100204.78;;;18.07;87.76
67015;BME280;1033;52.560;13.374;2023-08-30T07:24:24;100210.88;;;18.24;87.88
67015;BME280;1033;52.560;13.374;2023-08-30T07:26:53;100208.19;;;18.49;88.42
67015;BME280;1033;52.560;13.374;2023-08-30T07:29:22;100207.97;;;18.56;87.80
67015;BME280;1033;52.560;13.374;2023-08-30T07:31:51;100205.81;;;18.63;85.99
67015;BME280;1033;52.560;13.374;2023-08-30T07:34:21;100204.16;;;18.72;85.88
67015;BME280;1033;52.560;13.374;2023-08-30T07:36:53;100211.53;;;18.61;84.65
67015;BME280;1033;52.560;13.374;2023-08-30T07:39:24;100207.94;;;18.51;85.12
67015;BME280;1033;52.560;13.374;2023-08-30T07:41:53;100217.28;;;18.55;86.36
67015;BME280;1033;52.560;13.374;2023-08-30T07:44:22;100208.63;;;18.16;85.01
67015;BME280;1033;52.560;13.374;2023-08-30T07:46:51;100206.44;;;18.08;85.86
67015;BME280;1033;52.560;13.374;2023-08-30T07:49:20;100219.00;;;17.99;88.95
67015;BME280;1033;52.560;13.374;2023-08-30T07:51:50;100215.16;;;17.95;86.07
67015;BME280;1033;52.560;13.374;2023-08-30T07:54:19;100220.59;;;17.90;86.23
67015;BME280;1033;52.560;13.374;2023-08-30T07:56:49;100217.78;;;17.74;87.43
67015;BME280;1033;52.560;13.374;2023-08-30T07:59:19;100219.00;;;17.99;87.25
67015;BME280;1033;52.560;13.374;2023-08-30T08:01:48;100218.22;;;18.08;86.50
67015;BME280;1033;52.560;13.374;2023-08-30T08:04:19;100214.06;;;18.06;85.03
67015;BME280;1033;52.560;13.374;2023-08-30T08:06:48;100215.69;;;17.97;82.69
67015;BME280;1033;52.560;13.374;2023-08-30T08:09:23;100217.38;;;18.08;81.93
67015;BME280;1033;52.560;13.374;2023-08-30T08:11:54;100209.19;;;18.13;80.98
67015;BME280;1033;52.560;13.374;2023-08-30T08:14:24;100209.78;;;18.30;79.97
67015;BME280;1033;52.560;13.374;2023-08-30T08:16:53;100216.41;;;18.34;79.77
67015;BME280;1033;52.560;13.374;2023-08-30T08:19:22;100210.75;;;18.71;80.77
67015;BME280;1033;52.560;13.374;2023-08-30T08:21:55;100216.78;;;19.08;78.87
67015;BME280;1033;52.560;13.374;2023-08-30T08:24:24;100216.78;;;19.14;80.06
67015;BME280;1033;52.560;13.374;2023-08-30T08:26:55;100220.34;;;19.39;79.57
67015;BME280;1033;52.560;13.374;2023-08-30T08:29:24;100226.94;;;19.59;76.10
67015;BME280;1033;52.560;13.374;2023-08-30T08:31:55;100222.28;;;19.44;77.88
67015;BME280;1033;52.560;13.374;2023-08-30T08:34:24;100222.50;;;19.63;76.87
67015;BME280;1033;52.560;13.374;2023-08-30T08:36:53;100220.31;;;19.75;75.65
67015;BME280;1033;52.560;13.374;2023-08-30T08:39:22;100222.44;;;19.98;74.12
67015;BME280;1033;52.560;13.374;2023-08-30T08:41:54;100216.00;;;20.33;73.45
67015;BME280;1033;52.560;13.374;2023-08-30T08:44:23;100217.91;;;20.27;70.44
67015;BME280;1033;52.560;13.374;2023-08-30T08:46:55;100228.28;;;20.41;69.89
67015;BME280;1033;52.560;13.374;2023-08-30T08:49:25;100216.03;;;20.72;69.05
67015;BME280;1033;52.560;13.374;2023-08-30T08:51:56;100219.94;;;20.61;68.83
67015;BME280;1033;52.560;13.374;2023-08-30T08:54:26;100216.06;;;20.67;68.50
67015;BME280;1033;52.560;13.374;2023-08-30T08:56:58;100212.66;;;20.80;67.48
67015;BME280;1033;52.560;13.374;2023-08-30T08:59:27;100207.72;;;20.38;63.49
67015;BME280;1033;52.560;13.374;2023-08-30T09:01:57;100207.22;;;20.21;66.16
67015;BME280;1033;52.560;13.374;2023-08-30T09:04:26;100215.47;;;20.70;66.54
67015;BME280;1033;52.560;13.374;2023-08-30T09:06:59;100207.03;;;20.61;62.59
67015;BME280;1033;52.560;13.374;2023-08-30T09:09:28;100211.69;;;20.61;62.24
67015;BME280;1033;52.560;13.374;2023-08-30T09:12:00;100204.59;;;20.50;62.80
67015;BME280;1033;52.560;13.374;2023-08-30T09:14:29;100220.28;;;20.88;64.57
67015;BME280;1033;52.560;13.374;2023-08-30T09:16:59;100215.03;;;20.53;64.61
67015;BME280;1033;52.560;13.374;2023-08-30T09:19:29;100210.38;;;20.48;65.61
67015;BME280;1033;52.560;13.374;2023-08-30T09:21:59;100196.78;;;20.72;65.66
67015;BME280;1033;52.560;13.374;2023-08-30T09:24:38;100195.88;;;20.43;66.22
67015;BME280;1033;52.560;13.374;2023-08-30T09:27:09;100201.28;;;20.53;67.89
67015;BME280;1033;52.560;13.374;2023-08-30T09:29:38;100193.63;;;20.50;67.56
67015;BME280;1033;52.560;13.374;2023-08-30T09:32:13;100194.47;;;20.84;66.70
67015;BME280;1033;52.560;13.374;2023-08-30T09:34:49;100199.28;;;20.63;66.79
67015;BME280;1033;52.560;13.374;2023-08-30T09:37:22;100198.38;;;20.78;66.86
67015;BME280;1033;52.560;13.374;2023-08-30T09:39:51;100197.97;;;20.56;67.10
67015;BME280;1033;52.560;13.374;2023-08-30T09:42:22;100197.66;;;20.62;66.88
67015;BME280;1033;52.560;13.374;2023-08-30T09:44:52;100198.81;;;20.56;66.82
67015;BME280;1033;52.560;13.374;2023-08-30T09:47:27;100199.72;;;20.42;67.93
67015;BME280;1033;52.560;13.374;2023-08-30T09:49:58;100193.50;;;20.70;67.32
67015;BME280;1033;52.560;13.374;2023-08-30T09:52:30;100193.84;;;20.92;67.50
67015;BME280;1033;52.560;13.374;2023-08-30T09:55:02;100190.56;;;21.29;65.60
67015;BME280;1033;52.560;13.374;2023-08-30T09:57:33;100189.66;;;21.62;63.47
67015;BME280;1033;52.560;13.374;2023-08-30T10:00:04;100189.50;;;21.78;63.20
67015;BME280;1033;52.560;13.374;2023-08-30T10:02:33;100189.78;;;22.00;62.16
67015;BME280;1033;52.560;13.374;2023-08-30T10:05:03;100188.22;;;21.65;59.60
67015;BME280;1033;52.560;13.374;2023-08-30T10:07:33;100191.25;;;21.40;60.31
67015;BME280;1033;52.560;13.374;2023-08-30T10:10:04;100190.47;;;21.05;59.22
67015;BME280;1033;52.560;13.374;2023-08-30T10:12:39;100184.31;;;21.18;59.51
67015;BME280;1033;52.560;13.374;2023-08-30T10:15:21;100180.31;;;21.35;60.80
67015;BME280;1033;52.560;13.374;2023-08-30T10:17:53;100180.38;;;21.30;61.34
67015;BME280;1033;52.560;13.374;2023-08-30T10:20:23;100171.81;;;21.55;61.37
67015;BME280;1033;52.560;13.374;2023-08-30T10:22:54;100172.59;;;21.84;61.11
67015;BME280;1033;52.560;13.374;2023-08-30T10:25:27;100162.72;;;22.07;59.41
67015;BME280;1033;52.560;13.374;2023-08-30T10:28:00;100163.16;;;21.90;57.21
67015;BME280;1033;52.560;13.374;2023-08-30T10:30:30;100161.38;;;21.28;59.21
67015;BME280;1033;52.560;13.374;2023-08-30T10:33:00;100165.34;;;21.17;59.17
67015;BME280;1033;52.560;13.374;2023-08-30T10:35:31;100174.13;;;20.85;60.23
67015;BME280;1033;52.560;13.374;2023-08-30T10:38:00;100175.19;;;20.89;60.00
67015;BME280;1033;52.560;13.374;2023-08-30T10:40:29;100180.25;;;21.06;60.19
67015;BME280;1033;52.560;13.374;2023-08-30T10:43:01;100181.97;;;21.31;59.58
67015;BME280;1033;52.560;13.374;2023-08-30T10:45:31;100189.13;;;20.98;60.86
67015;BME280;1033;52.560;13.374;2023-08-30T10:48:01;100180.97;;;21.74;58.45
67015;BME280;1033;52.560;13.374;2023-08-30T10:50:33;100181.09;;;21.88;56.21
67015;BME280;1033;52.560;13.374;2023-08-30T10:53:03;100183.16;;;22.01;56.67
67015;BME280;1033;52.560;13.374;2023-08-30T10:55:33;100184.75;;;21.83;53.46
67015;BME280;1033;52.560;13.374;2023-08-30T10:58:04;100179.34;;;21.73;54.08
67015;BME280;1033;52.560;13.374;2023-08-30T11:00:33;100181.63;;;21.90;52.83
67015;BME280;1033;52.560;13.374;2023-08-30T11:03:04;100181.91;;;21.88;56.26
67015;BME280;1033;52.560;13.374;2023-08-30T11:05:41;100179.41;;;22.16;55.88
67015;BME280;1033;52.560;13.374;2023-08-30T11:08:11;100177.91;;;22.23;54.65
67015;BME280;1033;52.560;13.374;2023-08-30T11:10:41;100187.44;;;22.12;53.04
67015;BME280;1033;52.560;13.374;2023-08-30T11:13:15;100183.59;;;22.69;54.30
67015;BME280;1033;52.560;13.374;2023-08-30T11:15:45;100185.41;;;22.79;53.03
67015;BME280;1033;52.560;13.374;2023-08-30T11:18:19;100183.88;;;22.68;53.64
67015;BME280;1033;52.560;13.374;2023-08-30T11:20:48;100184.84;;;22.95;51.93
67015;BME280;1033;52.560;13.374;2023-08-30T11:23:22;100177.75;;;22.33;52.52
67015;BME280;1033;52.560;13.374;2023-08-30T11:25:51;100176.88;;;22.19;52.62
67015;BME280;1033;52.560;13.374;2023-08-30T11:28:26;100180.97;;;22.22;53.51
67015;BME280;1033;52.560;13.374;2023-08-30T11:30:56;100184.03;;;22.39;55.31
67015;BME280;1033;52.560;13.374;2023-08-30T11:33:50;100174.69;;;21.97;53.99
67015;BME280;1033;52.560;13.374;2023-08-30T11:36:21;100174.09;;;22.00;53.79
67015;BME280;1033;52.560;13.374;2023-08-30T11:38:51;100176.88;;;22.19;54.62
67015;BME280;1033;52.560;13.374;2023-08-30T11:41:22;100178.31;;;22.54;51.93
67015;BME280;1033;52.560;13.374;2023-08-30T11:43:53;100175.69;;;22.81;50.05
67015;BME280;1033;52.560;13.374;2023-08-30T11:46:22;100179.47;;;22.48;51.02
67015;BME280;1033;52.560;13.374;2023-08-30T11:48:52;100172.03;;;22.67;51.80
67015;BME280;1033;52.560;13.374;2023-08-30T11:51:22;100181.78;;;22.97;49.58
67015;BME280;1033;52.560;13.374;2023-08-30T11:53:52;100174.56;;;22.82;51.69
67015;BME280;1033;52.560;13.374;2023-08-30T11:56:22;100176.50;;;23.14;50.93
67015;BME280;1033;52.560;13.374;2023-08-30T11:58:53;100173.25;;;23.12;50.73
67015;BME280;1033;52.560;13.374;2023-08-30T12:01:23;100168.81;;;22.98;50.86
67015;BME280;1033;52.560;13.374;2023-08-30T12:16:26;100168.84;;;23.11;49.03
67015;BME280;1033;52.560;13.374;2023-08-30T12:26:42;100163.13;;;23.67;49.67
67015;BME280;1033;52.560;13.374;2023-08-30T12:29:12;100160.50;;;23.62;49.34
67015;BME280;1033;52.560;13.374;2023-08-30T12:31:43;100159.56;;;23.80;48.11
67015;BME280;1033;52.560;13.374;2023-08-30T12:34:12;100152.91;;;23.54;45.65
67015;BME280;1033;52.560;13.374;2023-08-30T12:36:42;100152.19;;;23.16;45.79
67015;BME280;1033;52.560;13.374;2023-08-30T12:39:11;100150.94;;;22.76;46.25
67015;BME280;1033;52.560;13.374;2023-08-30T12:41:41;100147.72;;;22.69;46.09
67015;BME280;1033;52.560;13.374;2023-08-30T12:44:11;100149.09;;;22.53;47.23
67015;BME280;1033;52.560;13.374;2023-08-30T12:46:40;100148.94;;;22.63;49.06
67015;BME280;1033;52.560;13.374;2023-08-30T12:49:11;100147.59;;;22.61;49.39
67015;BME280;1033;52.560;13.374;2023-08-30T12:51:40;100148.81;;;22.36;50.59
67015;BME280;1033;52.560;13.374;2023-08-30T12:54:09;100143.59;;;21.92;51.13
67015;BME280;1033;52.560;13.374;2023-08-30T12:56:38;100140.97;;;21.58;52.69
67015;BME280;1033;52.560;13.374;2023-08-30T12:59:08;100136.53;;;21.62;53.80
67015;BME280;1033;52.560;13.374;2023-08-30T13:01:38;100140.91;;;21.39;54.41
67015;BME280;1033;52.560;13.374;2023-08-30T13:04:09;100137.50;;;21.47;55.58
67015;BME280;1033;52.560;13.374;2023-08-30T13:06:39;100136.25;;;21.63;56.13
67015;BME280;1033;52.560;13.374;2023-08-30T13:09:08;100135.59;;;21.48;56.25
67015;BME280;1033;52.560;13.374;2023-08-30T13:11:37;100136.56;;;21.57;55.73
67015;BME280;1033;52.560;13.374;2023-08-30T13:14:07;100139.16;;;21.72;56.73
67015;BME280;1033;52.560;13.374;2023-08-30T13:16:36;100132.59;;;21.68;56.86
67015;BME280;1033;52.560;13.374;2023-08-30T13:19:06;100126.09;;;21.59;55.99
67015;BME280;1033;52.560;13.374;2023-08-30T13:21:36;100127.53;;;21.75;56.83
67015;BME280;1033;52.560;13.374;2023-08-30T13:24:08;100121.53;;;21.97;53.73